sensor_id;sensor_type;location;lat;lon;timestamp;pressure;altitude;pressure_sealevel;temperature;humidity
70027;BME280;57506;50.092;15.804;2024-03-25T00:01:57;97774.09;;;4.58;100.00
70027;BME280;57506;50.092;15.804;2024-03-25T00:04:23;97757.16;;;4.45;100.00
70027;BME280;57506;50.092;15.804;2024-03-25T00:06:49;97752.00;;;4.43;100.00
70027;BME280;57506;50.092;15.804;2024-03-25T00:09:15;97763.31;;;4.45;100.00
70027;BME280;57506;50.092;15.804;2024-03-25T00:11:41;97762.28;;;4.46;100.00
70027;BME280;57506;50.092;15.804;2024-03-25T00:14:07;97745.97;;;4.35;100.00
70027;BME280;57506;50.092;15.804;2024-03-25T00:16:34;97759.38;;;4.41;100.00
70027;BME280;57506;50.092;15.804;2024-03-25T00:19:00;97741.09;;;4.38;100.00
70027;BME280;57506;50.092;15.804;2024-03-25T00:21:26;97710.97;;;4.23;100.00
70027;BME280;57506;50.092;15.804;2024-03-25T00:23:52;97740.47;;;4.36;100.00
70027;BME280;57506;50.092;15.804;2024-03-25T00:26:17;97743.63;;;4.46;100.00
70027;BME280;57506;50.092;15.804;2024-03-25T00:28:43;97740.88;;;4.40;100.00
70027;BME280;57506;50.092;15.804;2024-03-25T00:31:09;97742.63;;;4.47;100.00
70027;BME280;57506;50.092;15.804;2024-03-25T00:33:34;97713.53;;;4.31;100.00
70027;BME280;57506;50.092;15.804;2024-03-25T00:36:03;97728.91;;;4.50;100.00
70027;BME280;57506;50.092;15.804;2024-03-25T00:38:29;97676.53;;;4.21;100.00
70027;BME280;57506;50.092;15.804;2024-03-25T00:40:55;97732.88;;;4.61;100.00
70027;BME280;57506;50.092;15.804;2024-03-25T00:43:20;97724.06;;;4.61;100.00
70027;BME280;57506;50.092;15.804;2024-03-25T00:45:46;97710.88;;;4.52;100.00
70027;BME280;57506;50.092;15.804;2024-03-25T00:48:11;97653.28;;;4.15;100.00
70027;BME280;57506;50.092;15.804;2024-03-25T00:50:37;97715.94;;;4.69;100.00
70027;BME280;57506;50.092;15.804;2024-03-25T00:53:03;97695.88;;;4.51;100.00
70027;BME280;57506;50.092;15.804;2024-03-25T00:55:28;97722.28;;;4.68;100.00
70027;BME280;57506;50.092;15.804;2024-03-25T00:57:54;97715.75;;;4.70;100.00
70027;BME280;57506;50.092;15.804;2024-03-25T01:00:20;97730.00;;;4.84;100.00
70027;BME280;57506;50.092;15.804;2024-03-25T01:02:46;97703.22;;;4.71;100.00
70027;BME280;57506;50.092;15.804;2024-03-25T01:05:12;97714.75;;;4.78;100.00
70027;BME280;57506;50.092;15.804;2024-03-25T01:07:38;97710.00;;;4.73;100.00
70027;BME280;57506;50.092;15.804;2024-03-25T01:10:05;97686.56;;;4.69;100.00
70027;BME280;57506;50.092;15.804;2024-03-25T01:12:31;97731.13;;;4.96;100.00
70027;BME280;57506;50.092;15.804;2024-03-25T01:14:57;97725.97;;;4.95;100.00
70027;BME280;57506;50.092;15.804;2024-03-25T01:17:22;97728.06;;;4.99;100.00
70027;BME280;57506;50.092;15.804;2024-03-25T01:19:48;97716.88;;;4.89;100.00
70027;BME280;57506;50.092;15.804;2024-03-25T01:22:14;97728.72;;;5.01;100.00
70027;BME280;57506;50.092;15.804;2024-03-25T01:24:39;97704.63;;;4.95;100.00
70027;BME280;57506;50.092;15.804;2024-03-25T01:27:05;97707.63;;;4.85;100.00
70027;BME280;57506;50.092;15.804;2024-03-25T01:29:31;97721.00;;;4.85;100.00
70027;BME280;57506;50.092;15.804;2024-03-25T01:31:58;97701.22;;;4.79;100.00
70027;BME280;57506;50.092;15.804;2024-03-25T01:34:25;97721.81;;;4.85;100.00
70027;BME280;57506;50.092;15.804;2024-03-25T01:36:51;97710.25;;;4.78;100.00
70027;BME280;57506;50.092;15.804;2024-03-25T01:39:17;97707.31;;;4.73;100.00
70027;BME280;57506;50.092;15.804;2024-03-25T01:41:43;97713.63;;;4.87;100.00
70027;BME280;57506;50.092;15.804;2024-03-25T01:44:09;97709.16;;;4.73;100.00
70027;BME280;57506;50.092;15.804;2024-03-25T01:46:35;97673.94;;;4.56;100.00
70027;BME280;57506;50.092;15.804;2024-03-25T01:49:01;97710.25;;;4.78;100.00
70027;BME280;57506;50.092;15.804;2024-03-25T01:51:26;97702.59;;;4.69;100.00
70027;BME280;57506;50.092;15.804;2024-03-25T01:53:54;97733.91;;;4.88;100.00
70027;BME280;57506;50.092;15.804;2024-03-25T01:56:23;97705.28;;;4.75;100.00
70027;BME280;57506;50.092;15.804;2024-03-25T01:58:49;97723.50;;;4.93;100.00
70027;BME280;57506;50.092;15.804;2024-03-25T02:01:15;97692.56;;;4.71;100.00
70027;BME280;57506;50.092;15.804;2024-03-25T02:03:42;97720.56;;;4.88;100.00
70027;BME280;57506;50.092;15.804;2024-03-25T02:06:15;97708.06;;;4.88;100.00
70027;BME280;57506;50.092;15.804;2024-03-25T02:08:43;97737.94;;;5.05;100.00
70027;BME280;57506;50.092;15.804;2024-03-25T02:11:10;97730.56;;;5.07;100.00
70027;BME280;57506;50.092;15.804;2024-03-25T02:13:38;97731.59;;;5.06;100.00
70027;BME280;57506;50.092;15.804;2024-03-25T02:16:05;97723.19;;;5.09;100.00
70027;BME280;57506;50.092;15.804;2024-03-25T02:18:30;97716.38;;;5.00;100.00
70027;BME280;57506;50.092;15.804;2024-03-25T02:20:57;97683.19;;;4.81;100.00
70027;BME280;57506;50.092;15.804;2024-03-25T02:23:24;97660.13;;;4.74;100.00
70027;BME280;57506;50.092;15.804;2024-03-25T02:25:53;97689.97;;;4.84;100.00
70027;BME280;57506;50.092;15.804;2024-03-25T02:28:19;97720.50;;;5.03;100.00
70027;BME280;57506;50.092;15.804;2024-03-25T02:30:45;97696.31;;;4.83;100.00
70027;BME280;57506;50.092;15.804;2024-03-25T02:33:11;97720.28;;;5.04;100.00
70027;BME280;57506;50.092;15.804;2024-03-25T02:35:38;97709.59;;;5.04;100.00
70027;BME280;57506;50.092;15.804;2024-03-25T02:38:04;97699.47;;;4.93;100.00
70027;BME280;57506;50.092;15.804;2024-03-25T02:40:30;97727.53;;;5.10;100.00
70027;BME280;57506;50.092;15.804;2024-03-25T02:42:56;97712.06;;;4.99;100.00
70027;BME280;57506;50.092;15.804;2024-03-25T02:45:22;97731.84;;;5.11;100.00
70027;BME280;57506;50.092;15.804;2024-03-25T02:47:48;97711.66;;;5.02;100.00
70027;BME280;57506;50.092;15.804;2024-03-25T02:50:14;97724.84;;;5.10;100.00
70027;BME280;57506;50.092;15.804;2024-03-25T02:52:40;97711.88;;;5.07;100.00
70027;BME280;57506;50.092;15.804;2024-03-25T02:55:05;97706.53;;;5.01;100.00
70027;BME280;57506;50.092;15.804;2024-03-25T02:57:31;97701.59;;;5.04;100.00
70027;BME280;57506;50.092;15.804;2024-03-25T02:59:56;97715.81;;;5.11;100.00
70027;BME280;57506;50.092;15.804;2024-03-25T03:02:22;97651.28;;;4.73;100.00
70027;BME280;57506;50.092;15.804;2024-03-25T03:04:48;97718.50;;;5.11;100.00
70027;BME280;57506;50.092;15.804;2024-03-25T03:07:13;97684.53;;;4.99;100.00
70027;BME280;57506;50.092;15.804;2024-03-25T03:09:39;97711.50;;;5.10;100.00
70027;BME280;57506;50.092;15.804;2024-03-25T03:12:04;97730.81;;;5.12;100.00
70027;BME280;57506;50.092;15.804;2024-03-25T03:14:30;97742.16;;;5.14;100.00
70027;BME280;57506;50.092;15.804;2024-03-25T03:16:56;97706.28;;;4.96;100.00
70027;BME280;57506;50.092;15.804;2024-03-25T03:19:26;97722.34;;;5.02;100.00
70027;BME280;57506;50.092;15.804;2024-03-25T03:21:52;97731.84;;;5.11;100.00
70027;BME280;57506;50.092;15.804;2024-03-25T03:24:17;97698.41;;;4.87;100.00
70027;BME280;57506;50.092;15.804;2024-03-25T03:26:43;97726.88;;;5.02;100.00
70027;BME280;57506;50.092;15.804;2024-03-25T03:29:09;97689.47;;;4.74;100.00
70027;BME280;57506;50.092;15.804;2024-03-25T03:31:36;97745.19;;;5.11;100.00
70027;BME280;57506;50.092;15.804;2024-03-25T03:34:01;97737.91;;;4.99;100.00
70027;BME280;57506;50.092;15.804;2024-03-25T03:36:27;97736.16;;;5.12;100.00
70027;BME280;57506;50.092;15.804;2024-03-25T03:38:53;97754.47;;;5.15;100.00
70027;BME280;57506;50.092;15.804;2024-03-25T03:41:19;97744.44;;;5.17;100.00
70027;BME280;57506;50.092;15.804;2024-03-25T03:43:45;97716.38;;;5.00;100.00
70027;BME280;57506;50.092;15.804;2024-03-25T03:46:11;97742.97;;;5.15;100.00
70027;BME280;57506;50.092;15.804;2024-03-25T03:48:37;97745.44;;;5.16;100.00
70027;BME280;57506;50.092;15.804;2024-03-25T03:51:04;97749.31;;;5.14;100.00
70027;BME280;57506;50.092;15.804;2024-03-25T03:53:30;97749.31;;;5.14;100.00
70027;BME280;57506;50.092;15.804;2024-03-25T03:55:55;97760.66;;;5.22;100.00
70027;BME280;57506;50.092;15.804;2024-03-25T03:58:22;97761.47;;;5.16;100.00
70027;BME280;57506;50.092;15.804;2024-03-25T04:00:47;97744.91;;;5.00;100.00
70027;BME280;57506;50.092;15.804;2024-03-25T04:03:13;97755.25;;;5.09;100.00
70027;BME280;57506;50.092;15.804;2024-03-25T04:05:38;97766.72;;;5.03;100.00
70027;BME280;57506;50.092;15.804;2024-03-25T04:08:04;97757.63;;;4.98;100.00
70027;BME280;57506;50.092;15.804;2024-03-25T04:10:30;97783.13;;;5.00;100.00
70027;BME280;57506;50.092;15.804;2024-03-25T04:12:55;97764.31;;;4.87;100.00
70027;BME280;57506;50.092;15.804;2024-03-25T04:15:22;97767.13;;;4.79;100.00
70027;BME280;57506;50.092;15.804;2024-03-25T04:17:48;97778.47;;;4.87;100.00
70027;BME280;57506;50.092;15.804;2024-03-25T04:20:16;97755.16;;;4.75;100.00
70027;BME280;57506;50.092;15.804;2024-03-25T04:22:46;97771.44;;;4.80;100.00
70027;BME280;57506;50.092;15.804;2024-03-25T04:25:12;97774.19;;;4.86;100.00
70027;BME280;57506;50.092;15.804;2024-03-25T04:27:41;97782.22;;;4.93;100.00
70027;BME280;57506;50.092;15.804;2024-03-25T04:30:08;97784.88;;;4.93;100.00
70027;BME280;57506;50.092;15.804;2024-03-25T04:32:35;97756.59;;;4.71;100.00
70027;BME280;57506;50.092;15.804;2024-03-25T04:35:01;97776.03;;;4.86;100.00
70027;BME280;57506;50.092;15.804;2024-03-25T04:37:27;97788.75;;;4.90;100.00
70027;BME280;57506;50.092;15.804;2024-03-25T04:39:53;97779.63;;;4.78;100.00
70027;BME280;57506;50.092;15.804;2024-03-25T04:42:19;97796.53;;;4.85;100.00
70027;BME280;57506;50.092;15.804;2024-03-25T04:44:45;97785.16;;;4.77;100.00
70027;BME280;57506;50.092;15.804;2024-03-25T04:47:10;97785.78;;;4.79;100.00
70027;BME280;57506;50.092;15.804;2024-03-25T04:49:36;97806.31;;;4.78;100.00
70027;BME280;57506;50.092;15.804;2024-03-25T04:52:03;97798.13;;;4.80;100.00
70027;BME280;57506;50.092;15.804;2024-03-25T04:54:29;97773.34;;;4.65;100.00
70027;BME280;57506;50.092;15.804;2024-03-25T04:56:54;97819.97;;;4.90;100.00
70027;BME280;57506;50.092;15.804;2024-03-25T04:59:21;97830.28;;;4.93;100.00
70027;BME280;57506;50.092;15.804;2024-03-25T05:01:47;97829.41;;;4.86;100.00
70027;BME280;57506;50.092;15.804;2024-03-25T05:04:13;97827.03;;;4.76;100.00
70027;BME280;57506;50.092;15.804;2024-03-25T05:06:38;97825.69;;;4.66;100.00
70027;BME280;57506;50.092;15.804;2024-03-25T05:09:04;97812.09;;;4.61;100.00
70027;BME280;57506;50.092;15.804;2024-03-25T05:11:31;97810.81;;;4.56;100.00
70027;BME280;57506;50.092;15.804;2024-03-25T05:13:57;97823.97;;;4.58;100.00
70027;BME280;57506;50.092;15.804;2024-03-25T05:16:22;97838.97;;;4.59;100.00
70027;BME280;57506;50.092;15.804;2024-03-25T05:18:48;97818.31;;;4.46;100.00
70027;BME280;57506;50.092;15.804;2024-03-25T05:21:14;97851.94;;;4.62;100.00
70027;BME280;57506;50.092;15.804;2024-03-25T05:23:39;97842.84;;;4.56;100.00
70027;BME280;57506;50.092;15.804;2024-03-25T05:26:05;97851.19;;;4.68;100.00
70027;BME280;57506;50.092;15.804;2024-03-25T05:28:30;97859.38;;;4.67;100.00
70027;BME280;57506;50.092;15.804;2024-03-25T05:30:56;97854.50;;;4.55;100.00
70027;BME280;57506;50.092;15.804;2024-03-25T05:33:21;97856.25;;;4.63;100.00
70027;BME280;57506;50.092;15.804;2024-03-25T05:35:47;97867.38;;;4.67;100.00
70027;BME280;57506;50.092;15.804;2024-03-25T05:38:12;97868.03;;;4.69;100.00
70027;BME280;57506;50.092;15.804;2024-03-25T05:40:38;97875.03;;;4.70;100.00
70027;BME280;57506;50.092;15.804;2024-03-25T05:43:04;97859.19;;;4.68;100.00
70027;BME280;57506;50.092;15.804;2024-03-25T05:45:30;97869.16;;;4.81;100.00
70027;BME280;57506;50.092;15.804;2024-03-25T05:47:55;97871.28;;;4.85;100.00
70027;BME280;57506;50.092;15.804;2024-03-25T05:50:21;97869.69;;;4.91;100.00
70027;BME280;57506;50.092;15.804;2024-03-25T05:52:46;97882.47;;;4.96;100.00
70027;BME280;57506;50.092;15.804;2024-03-25T05:55:12;97862.69;;;4.90;100.00
70027;BME280;57506;50.092;15.804;2024-03-25T05:57:37;97887.88;;;5.02;100.00
70027;BME280;57506;50.092;15.804;2024-03-25T06:00:03;97883.41;;;5.09;100.00
70027;BME280;57506;50.092;15.804;2024-03-25T06:02:29;97883.41;;;5.09;100.00
70027;BME280;57506;50.092;15.804;2024-03-25T06:04:55;97897.84;;;5.15;100.00
70027;BME280;57506;50.092;15.804;2024-03-25T06:07:22;97902.81;;;5.18;100.00
70027;BME280;57506;50.092;15.804;2024-03-25T06:09:47;97902.19;;;5.16;100.00
70027;BME280;57506;50.092;15.804;2024-03-25T06:12:13;97904.25;;;5.20;100.00
70027;BME280;57506;50.092;15.804;2024-03-25T06:14:38;97905.53;;;5.24;100.00
70027;BME280;57506;50.092;15.804;2024-03-25T06:17:04;97912.84;;;5.37;100.00
70027;BME280;57506;50.092;15.804;2024-03-25T06:19:30;97899.56;;;5.22;100.00
70027;BME280;57506;50.092;15.804;2024-03-25T06:21:56;97903.75;;;5.32;100.00
70027;BME280;57506;50.092;15.804;2024-03-25T06:24:22;97921.00;;;5.29;100.00
70027;BME280;57506;50.092;15.804;2024-03-25T06:26:47;97920.91;;;5.22;100.00
70027;BME280;57506;50.092;15.804;2024-03-25T06:29:13;97929.75;;;5.23;100.00
70027;BME280;57506;50.092;15.804;2024-03-25T06:31:38;97965.31;;;5.23;100.00
70027;BME280;57506;50.092;15.804;2024-03-25T06:34:22;97962.41;;;5.04;100.00
70027;BME280;57506;50.092;15.804;2024-03-25T06:36:48;97967.38;;;4.85;100.00
70027;BME280;57506;50.092;15.804;2024-03-25T06:39:14;97964.09;;;4.69;100.00
70027;BME280;57506;50.092;15.804;2024-03-25T06:41:40;97971.16;;;4.62;100.00
70027;BME280;57506;50.092;15.804;2024-03-25T06:44:06;97950.56;;;4.55;100.00
70027;BME280;57506;50.092;15.804;2024-03-25T06:46:32;97948.38;;;4.44;100.00
70027;BME280;57506;50.092;15.804;2024-03-25T06:48:57;97972.38;;;4.59;100.00
70027;BME280;57506;50.092;15.804;2024-03-25T06:51:23;97969.16;;;4.64;100.00
70027;BME280;57506;50.092;15.804;2024-03-25T06:53:49;97969.66;;;4.74;100.00
70027;BME280;57506;50.092;15.804;2024-03-25T06:56:15;97975.66;;;4.76;100.00
70027;BME280;57506;50.092;15.804;2024-03-25T06:58:42;97982.75;;;4.83;100.00
70027;BME280;57506;50.092;15.804;2024-03-25T07:01:09;97978.50;;;4.74;100.00
70027;BME280;57506;50.092;15.804;2024-03-25T07:03:35;97989.53;;;4.71;100.00
70027;BME280;57506;50.092;15.804;2024-03-25T07:06:01;98019.09;;;4.84;100.00
70027;BME280;57506;50.092;15.804;2024-03-25T07:08:28;98005.84;;;4.62;100.00
70027;BME280;57506;50.092;15.804;2024-03-25T07:10:54;98020.69;;;4.64;100.00
70027;BME280;57506;50.092;15.804;2024-03-25T07:13:20;98016.81;;;4.67;100.00
70027;BME280;57506;50.092;15.804;2024-03-25T07:15:46;97996.56;;;4.57;100.00
70027;BME280;57506;50.092;15.804;2024-03-25T07:18:11;98019.19;;;4.76;100.00
70027;BME280;57506;50.092;15.804;2024-03-25T07:20:39;98004.09;;;4.83;100.00
70027;BME280;57506;50.092;15.804;2024-03-25T07:23:05;97980.44;;;4.80;100.00
70027;BME280;57506;50.092;15.804;2024-03-25T07:25:31;98016.25;;;5.22;100.00
70027;BME280;57506;50.092;15.804;2024-03-25T07:27:56;98021.22;;;5.25;100.00
70027;BME280;57506;50.092;15.804;2024-03-25T07:30:22;98011.91;;;5.21;100.00
70027;BME280;57506;50.092;15.804;2024-03-25T07:32:50;98022.69;;;5.27;100.00
70027;BME280;57506;50.092;15.804;2024-03-25T07:35:16;98023.38;;;5.36;100.00
70027;BME280;57506;50.092;15.804;2024-03-25T07:37:45;98025.19;;;5.50;100.00
70027;BME280;57506;50.092;15.804;2024-03-25T07:40:10;98016.41;;;5.78;100.00
70027;BME280;57506;50.092;15.804;2024-03-25T07:42:40;98026.56;;;6.10;100.00
70027;BME280;57506;50.092;15.804;2024-03-25T07:45:06;98022.88;;;6.11;100.00
70027;BME280;57506;50.092;15.804;2024-03-25T07:47:32;98028.78;;;6.28;100.00
70027;BME280;57506;50.092;15.804;2024-03-25T07:49:58;98046.03;;;6.25;100.00
70027;BME280;57506;50.092;15.804;2024-03-25T07:52:27;98040.28;;;5.79;100.00
70027;BME280;57506;50.092;15.804;2024-03-25T07:54:53;98042.78;;;5.87;100.00
70027;BME280;57506;50.092;15.804;2024-03-25T07:57:19;98052.84;;;5.85;100.00
70027;BME280;57506;50.092;15.804;2024-03-25T07:59:47;98040.09;;;5.81;100.00
70027;BME280;57506;50.092;15.804;2024-03-25T08:02:13;98033.66;;;5.96;100.00
70027;BME280;57506;50.092;15.804;2024-03-25T08:04:38;98039.31;;;6.08;100.00
70027;BME280;57506;50.092;15.804;2024-03-25T08:07:04;98051.09;;;6.42;100.00
70027;BME280;57506;50.092;15.804;2024-03-25T08:09:29;98040.03;;;6.51;100.00
70027;BME280;57506;50.092;15.804;2024-03-25T08:11:55;98051.25;;;6.68;100.00
70027;BME280;57506;50.092;15.804;2024-03-25T08:14:21;98070.09;;;6.81;100.00
70027;BME280;57506;50.092;15.804;2024-03-25T08:16:58;98013.97;;;6.66;100.00
70027;BME280;57506;50.092;15.804;2024-03-25T08:19:24;98020.59;;;6.71;99.50
70027;BME280;57506;50.092;15.804;2024-03-25T08:21:50;98051.03;;;7.04;97.89
70027;BME280;57506;50.092;15.804;2024-03-25T08:24:15;98083.28;;;7.24;96.92
70027;BME280;57506;50.092;15.804;2024-03-25T08:26:41;98065.25;;;7.59;95.09
70027;BME280;57506;50.092;15.804;2024-03-25T08:29:07;98071.44;;;7.59;91.78
70027;BME280;57506;50.092;15.804;2024-03-25T08:31:32;98049.50;;;7.29;91.56
70027;BME280;57506;50.092;15.804;2024-03-25T08:33:58;98067.19;;;7.24;90.03
70027;BME280;57506;50.092;15.804;2024-03-25T08:36:23;98073.13;;;7.13;90.17
70027;BME280;57506;50.092;15.804;2024-03-25T08:38:49;98056.81;;;7.08;91.26
70027;BME280;57506;50.092;15.804;2024-03-25T08:41:15;98070.50;;;7.32;93.16
70027;BME280;57506;50.092;15.804;2024-03-25T08:43:40;98048.63;;;7.22;92.64
70027;BME280;57506;50.092;15.804;2024-03-25T08:46:06;98065.34;;;7.31;92.32
70027;BME280;57506;50.092;15.804;2024-03-25T08:48:32;98070.78;;;7.44;89.35
70027;BME280;57506;50.092;15.804;2024-03-25T08:50:57;98082.13;;;7.46;86.13
70027;BME280;57506;50.092;15.804;2024-03-25T08:53:23;98077.25;;;7.63;86.84
70027;BME280;57506;50.092;15.804;2024-03-25T08:55:48;98084.47;;;7.82;86.86
70027;BME280;57506;50.092;15.804;2024-03-25T08:58:15;98082.88;;;7.94;87.11
70027;BME280;57506;50.092;15.804;2024-03-25T09:00:41;98070.69;;;8.18;86.11
70027;BME280;57506;50.092;15.804;2024-03-25T09:03:07;98078.53;;;7.93;84.88
70027;BME280;57506;50.092;15.804;2024-03-25T09:05:33;98086.09;;;7.57;81.12
70027;BME280;57506;50.092;15.804;2024-03-25T09:08:00;98084.81;;;7.46;83.24
70027;BME280;57506;50.092;15.804;2024-03-25T09:10:26;98071.63;;;7.45;84.74
70027;BME280;57506;50.092;15.804;2024-03-25T09:13:10;98085.28;;;7.63;81.42
70027;BME280;57506;50.092;15.804;2024-03-25T09:15:36;98089.41;;;7.72;80.48
70027;BME280;57506;50.092;15.804;2024-03-25T09:18:01;98077.09;;;8.17;81.93
70027;BME280;57506;50.092;15.804;2024-03-25T09:20:27;98086.44;;;8.54;82.13
70027;BME280;57506;50.092;15.804;2024-03-25T09:22:53;98086.41;;;8.74;82.10
70027;BME280;57506;50.092;15.804;2024-03-25T09:25:18;98110.78;;;8.66;78.60
70027;BME280;57506;50.092;15.804;2024-03-25T09:27:48;98102.94;;;8.25;79.97
70027;BME280;57506;50.092;15.804;2024-03-25T09:30:14;98113.59;;;7.85;81.01
70027;BME280;57506;50.092;15.804;2024-03-25T09:32:41;98114.00;;;7.89;82.05
70027;BME280;57506;50.092;15.804;2024-03-25T09:35:11;98113.91;;;7.56;80.57
70027;BME280;57506;50.092;15.804;2024-03-25T09:37:37;98131.97;;;6.65;85.04
70027;BME280;57506;50.092;15.804;2024-03-25T09:40:03;98158.91;;;5.78;97.22
70027;BME280;57506;50.092;15.804;2024-03-25T09:43:02;98159.00;;;5.34;100.00
70027;BME280;57506;50.092;15.804;2024-03-25T09:45:29;98120.59;;;4.62;100.00
70027;BME280;57506;50.092;15.804;2024-03-25T09:47:55;98094.44;;;4.42;100.00
70027;BME280;57506;50.092;15.804;2024-03-25T09:50:21;98147.41;;;4.83;100.00
70027;BME280;57506;50.092;15.804;2024-03-25T09:52:50;98139.88;;;4.86;100.00
70027;BME280;57506;50.092;15.804;2024-03-25T09:55:16;98150.25;;;4.96;100.00
70027;BME280;57506;50.092;15.804;2024-03-25T09:57:45;98141.53;;;5.02;100.00
70027;BME280;57506;50.092;15.804;2024-03-25T10:00:12;98127.38;;;5.38;100.00
70027;BME280;57506;50.092;15.804;2024-03-25T10:02:39;98143.41;;;5.88;100.00
70027;BME280;57506;50.092;15.804;2024-03-25T10:05:05;98136.44;;;6.09;100.00
70027;BME280;57506;50.092;15.804;2024-03-25T10:07:32;98129.78;;;6.47;100.00
70027;BME280;57506;50.092;15.804;2024-03-25T10:09:58;98137.44;;;6.78;100.00
70027;BME280;57506;50.092;15.804;2024-03-25T10:12:24;98123.22;;;7.12;100.00
70027;BME280;57506;50.092;15.804;2024-03-25T10:14:50;98127.22;;;7.36;96.49
70027;BME280;57506;50.092;15.804;2024-03-25T10:17:15;98117.22;;;7.58;91.03
70027;BME280;57506;50.092;15.804;2024-03-25T10:19:41;98132.56;;;7.84;87.19
70027;BME280;57506;50.092;15.804;2024-03-25T10:22:08;98133.34;;;7.71;80.55
70027;BME280;57506;50.092;15.804;2024-03-25T10:24:45;98141.63;;;7.76;81.13
70027;BME280;57506;50.092;15.804;2024-03-25T10:27:23;98136.47;;;7.81;82.02
70027;BME280;57506;50.092;15.804;2024-03-25T10:29:53;98132.97;;;7.74;81.45
70027;BME280;57506;50.092;15.804;2024-03-25T10:32:19;98148.38;;;7.65;79.01
70027;BME280;57506;50.092;15.804;2024-03-25T10:34:45;98149.78;;;7.55;80.15
70027;BME280;57506;50.092;15.804;2024-03-25T10:37:11;98160.69;;;7.47;81.70
70027;BME280;57506;50.092;15.804;2024-03-25T10:39:49;98142.97;;;7.52;82.39
70027;BME280;57506;50.092;15.804;2024-03-25T10:42:19;98146.09;;;7.56;81.56
70027;BME280;57506;50.092;15.804;2024-03-25T10:44:46;98157.75;;;7.89;84.57
70027;BME280;57506;50.092;15.804;2024-03-25T10:47:22;98150.06;;;7.80;83.28
70027;BME280;57506;50.092;15.804;2024-03-25T10:49:59;98163.97;;;8.03;85.97
70027;BME280;57506;50.092;15.804;2024-03-25T10:52:30;98153.19;;;7.83;83.91
70027;BME280;57506;50.092;15.804;2024-03-25T10:54:57;98154.06;;;7.90;85.87
70027;BME280;57506;50.092;15.804;2024-03-25T10:57:24;98147.44;;;7.99;87.48
70027;BME280;57506;50.092;15.804;2024-03-25T10:59:51;98154.06;;;8.03;87.92
70027;BME280;57506;50.092;15.804;2024-03-25T11:02:17;98171.41;;;7.94;85.94
70027;BME280;57506;50.092;15.804;2024-03-25T11:04:43;98163.09;;;7.76;85.72
70027;BME280;57506;50.092;15.804;2024-03-25T11:07:11;98171.59;;;7.99;87.41
70027;BME280;57506;50.092;15.804;2024-03-25T11:09:38;98159.41;;;7.90;82.58
70027;BME280;57506;50.092;15.804;2024-03-25T11:12:04;98146.81;;;7.97;85.69
70027;BME280;57506;50.092;15.804;2024-03-25T11:14:30;98165.25;;;8.07;84.10
70027;BME280;57506;50.092;15.804;2024-03-25T11:16:59;98154.75;;;8.25;83.09
70027;BME280;57506;50.092;15.804;2024-03-25T11:19:26;98157.06;;;8.88;85.78
70027;BME280;57506;50.092;15.804;2024-03-25T11:21:53;98152.50;;;9.08;80.43
70027;BME280;57506;50.092;15.804;2024-03-25T11:24:28;98124.00;;;8.61;74.20
70027;BME280;57506;50.092;15.804;2024-03-25T11:26:55;98170.66;;;8.27;73.92
70027;BME280;57506;50.092;15.804;2024-03-25T11:29:21;98090.81;;;7.55;72.46
70027;BME280;57506;50.092;15.804;2024-03-25T11:31:49;98161.06;;;7.91;72.44
70027;BME280;57506;50.092;15.804;2024-03-25T11:34:15;98157.34;;;7.99;72.90
70027;BME280;57506;50.092;15.804;2024-03-25T11:36:41;98128.59;;;7.66;69.50
70027;BME280;57506;50.092;15.804;2024-03-25T11:39:07;98156.78;;;8.10;71.40
70027;BME280;57506;50.092;15.804;2024-03-25T11:41:42;98136.34;;;8.29;69.09
70027;BME280;57506;50.092;15.804;2024-03-25T11:44:09;98145.03;;;8.31;70.26
70027;BME280;57506;50.092;15.804;2024-03-25T11:46:37;98140.13;;;8.41;70.66
70027;BME280;57506;50.092;15.804;2024-03-25T11:49:07;98126.50;;;8.43;70.62
70027;BME280;57506;50.092;15.804;2024-03-25T11:51:34;98149.19;;;8.80;70.24
70027;BME280;57506;50.092;15.804;2024-03-25T11:54:02;98146.28;;;8.94;69.14
70027;BME280;57506;50.092;15.804;2024-03-25T11:56:30;98128.88;;;9.17;69.99
70027;BME280;57506;50.092;15.804;2024-03-25T11:58:56;98136.16;;;9.03;66.63
70027;BME280;57506;50.092;15.804;2024-03-25T12:01:22;98140.97;;;8.74;63.60
70027;BME280;57506;50.092;15.804;2024-03-25T12:03:47;98135.19;;;8.58;64.48
70027;BME280;57506;50.092;15.804;2024-03-25T12:06:13;98143.22;;;8.51;64.28
70027;BME280;57506;50.092;15.804;2024-03-25T12:08:39;98122.38;;;8.53;62.88
70027;BME280;57506;50.092;15.804;2024-03-25T12:11:24;98139.28;;;8.67;62.66
70027;BME280;57506;50.092;15.804;2024-03-25T12:13:50;98110.16;;;8.84;64.51
70027;BME280;57506;50.092;15.804;2024-03-25T12:16:17;98133.84;;;9.20;65.52
70027;BME280;57506;50.092;15.804;2024-03-25T12:18:43;98135.97;;;9.04;61.20
70027;BME280;57506;50.092;15.804;2024-03-25T12:21:10;98130.09;;;9.27;66.72
70027;BME280;57506;50.092;15.804;2024-03-25T12:23:36;98133.66;;;9.72;63.50
70027;BME280;57506;50.092;15.804;2024-03-25T12:26:03;98129.16;;;9.60;61.07
70027;BME280;57506;50.092;15.804;2024-03-25T12:28:32;98148.44;;;9.43;61.49
70027;BME280;57506;50.092;15.804;2024-03-25T12:31:02;98128.72;;;8.98;62.60
70027;BME280;57506;50.092;15.804;2024-03-25T12:33:27;98131.81;;;9.02;62.25
70027;BME280;57506;50.092;15.804;2024-03-25T12:35:53;98120.56;;;9.31;66.23
70027;BME280;57506;50.092;15.804;2024-03-25T12:38:27;98150.06;;;9.58;61.39
70027;BME280;57506;50.092;15.804;2024-03-25T12:41:14;98137.59;;;9.70;60.76
70027;BME280;57506;50.092;15.804;2024-03-25T12:43:43;98125.41;;;9.67;61.22
70027;BME280;57506;50.092;15.804;2024-03-25T12:46:09;98146.50;;;9.64;61.26
70027;BME280;57506;50.092;15.804;2024-03-25T12:48:38;98155.53;;;9.82;63.46
70027;BME280;57506;50.092;15.804;2024-03-25T12:51:06;98137.22;;;9.60;62.01